createdAt,value
2022-12-29T00:00:03.147Z,3.70
2022-12-29T00:02:30.317Z,3.77
2022-12-29T00:04:57.576Z,7.50
2022-12-29T00:07:24.747Z,4.63
2022-12-29T00:09:51.943Z,4.07
2022-12-29T00:12:19.084Z,4.07
2022-12-29T00:15:04.827Z,4.07
2022-12-29T00:17:31.978Z,4.10
2022-12-29T00:20:17.965Z,4.10
2022-12-29T00:23:03.841Z,4.60
2022-12-29T00:25:49.962Z,3.70
2022-12-29T00:28:35.878Z,4.17
2022-12-29T00:31:21.854Z,3.90
2022-12-29T00:34:07.442Z,4.40
2022-12-29T00:36:37.913Z,5.17
2022-12-29T00:39:29.904Z,4.47
2022-12-29T00:42:15.742Z,3.70
2022-12-29T00:44:44.559Z,4.07
2022-12-29T00:47:11.817Z,3.80
2022-12-29T00:49:39.009Z,3.70
2022-12-29T00:52:09.053Z,3.67
2022-12-29T00:54:38.506Z,3.33
2022-12-29T00:57:07.343Z,3.80
2022-12-29T00:59:39.870Z,3.70
2022-12-29T01:02:07.935Z,4.00
2022-12-29T01:04:35.317Z,4.50
2022-12-29T01:07:02.504Z,3.93
2022-12-29T01:09:48.373Z,4.03
2022-12-29T01:12:15.588Z,3.80
2022-12-29T01:14:42.806Z,3.60
2022-12-29T01:17:10.318Z,3.90
2022-12-29T01:19:37.552Z,4.63
2022-12-29T01:22:04.761Z,3.70
2022-12-29T01:24:31.955Z,4.37
2022-12-29T01:26:59.130Z,4.20
2022-12-29T01:29:26.422Z,3.90
2022-12-29T01:31:53.614Z,3.80
2022-12-29T01:34:20.853Z,4.10
2022-12-29T01:36:48.005Z,3.83
2022-12-29T01:39:15.236Z,3.90
2022-12-29T01:41:43.457Z,4.10
2022-12-29T01:44:47.528Z,5.60
2022-12-29T01:47:31.984Z,3.80
2022-12-29T01:50:04.012Z,4.57
2022-12-29T01:52:34.945Z,3.70
2022-12-29T01:55:04.293Z,3.60
2022-12-29T01:57:36.821Z,4.37
2022-12-29T02:00:10.122Z,4.03
2022-12-29T02:02:37.637Z,3.90
2022-12-29T02:05:17.115Z,3.60
2022-12-29T02:07:45.382Z,3.70
2022-12-29T02:10:13.764Z,3.50
2022-12-29T02:12:41.749Z,3.70
2022-12-29T02:15:09.355Z,3.80
2022-12-29T02:17:39.076Z,3.90
2022-12-29T02:20:28.552Z,4.17
2022-12-29T02:23:32.966Z,3.83
2022-12-29T02:26:21.158Z,4.10
2022-12-29T02:28:48.305Z,3.83
2022-12-29T02:31:15.490Z,3.87
2022-12-29T02:34:10.430Z,3.87
2022-12-29T02:36:45.697Z,5.07
2022-12-29T02:39:56.641Z,3.60
2022-12-29T02:42:41.389Z,3.63
2022-12-29T02:45:20.368Z,3.80
2022-12-29T02:47:47.483Z,4.63
2022-12-29T02:50:28.317Z,4.10
2022-12-29T02:53:10.310Z,3.90
2022-12-29T02:55:37.618Z,4.30
2022-12-29T02:58:21.140Z,4.00
2022-12-29T03:01:04.583Z,3.90
2022-12-29T03:03:43.138Z,3.73
2022-12-29T03:06:39.005Z,3.80
2022-12-29T03:09:26.985Z,3.70
2022-12-29T03:12:09.927Z,4.10
2022-12-29T03:15:19.269Z,3.73
2022-12-29T03:18:04.217Z,3.67
2022-12-29T03:20:40.312Z,3.90
2022-12-29T03:23:09.147Z,3.80
2022-12-29T03:25:41.289Z,3.60
2022-12-29T03:28:13.277Z,3.90
2022-12-29T03:30:42.348Z,5.60
2022-12-29T03:33:13.349Z,5.60
2022-12-29T03:35:44.748Z,3.60
2022-12-29T03:38:29.496Z,3.80
2022-12-29T03:41:03.013Z,4.00
2022-12-29T03:43:30.388Z,3.70
2022-12-29T03:45:57.661Z,4.00
2022-12-29T03:48:24.871Z,4.80
2022-12-29T03:50:52.550Z,3.80
2022-12-29T03:53:19.735Z,3.70
2022-12-29T03:55:47.109Z,3.70
2022-12-29T03:58:14.294Z,3.97
2022-12-29T04:00:41.495Z,3.60
2022-12-29T04:03:08.770Z,3.70
2022-12-29T04:05:36.059Z,3.80
2022-12-29T04:08:03.211Z,3.70
2022-12-29T04:10:30.400Z,4.30
2022-12-29T04:12:57.564Z,3.90
2022-12-29T04:15:25.397Z,3.70
2022-12-29T04:17:52.643Z,4.33
2022-12-29T04:20:38.436Z,3.83
2022-12-29T04:23:07.421Z,4.23
2022-12-29T04:25:34.727Z,3.80
2022-12-29T04:28:02.265Z,3.97
2022-12-29T04:30:29.625Z,4.53
2022-12-29T04:32:56.809Z,3.63
2022-12-29T04:35:23.988Z,5.07
2022-12-29T04:37:51.146Z,3.70
2022-12-29T04:40:18.396Z,3.90
2022-12-29T04:42:45.596Z,3.80
2022-12-29T04:45:12.854Z,3.60
2022-12-29T04:47:40.063Z,3.83
2022-12-29T04:50:07.535Z,3.80
2022-12-29T04:52:34.833Z,3.70
2022-12-29T04:55:02.019Z,3.70
2022-12-29T04:57:29.218Z,3.60
2022-12-29T04:59:56.425Z,3.90
2022-12-29T05:02:23.746Z,3.80
2022-12-29T05:04:51.371Z,4.10
2022-12-29T05:07:18.589Z,3.87
2022-12-29T05:09:45.801Z,3.90
2022-12-29T05:12:12.973Z,4.87
2022-12-29T05:14:40.210Z,3.73
2022-12-29T05:17:07.393Z,4.00
2022-12-29T05:19:34.879Z,4.07
2022-12-29T05:22:02.061Z,3.57
2022-12-29T05:24:29.301Z,4.23
2022-12-29T05:26:56.457Z,3.60
2022-12-29T05:29:23.637Z,3.50
2022-12-29T05:31:50.858Z,3.87
2022-12-29T05:34:18.049Z,3.60
2022-12-29T05:36:45.600Z,3.93
2022-12-29T05:39:12.828Z,3.60
2022-12-29T05:41:39.984Z,4.23
2022-12-29T05:44:07.340Z,3.93
2022-12-29T05:46:34.556Z,3.67
2022-12-29T05:49:01.798Z,3.60
2022-12-29T05:51:28.969Z,3.90
2022-12-29T05:53:56.227Z,3.60
2022-12-29T05:56:23.397Z,3.57
2022-12-29T05:58:50.622Z,3.50
2022-12-29T06:01:17.927Z,4.00
2022-12-29T06:03:48.355Z,3.43
2022-12-29T06:06:16.002Z,3.93
2022-12-29T06:08:43.259Z,3.83
2022-12-29T06:11:10.773Z,3.60
2022-12-29T06:13:38.021Z,3.90
2022-12-29T06:16:05.434Z,3.47
2022-12-29T06:18:32.678Z,3.67
2022-12-29T06:21:04.750Z,3.70
2022-12-29T06:23:31.914Z,3.60
2022-12-29T06:25:59.102Z,4.00
2022-12-29T06:28:26.361Z,3.77
2022-12-29T06:30:53.574Z,3.90
2022-12-29T06:33:21.839Z,4.20
2022-12-29T06:35:49.093Z,4.03
2022-12-29T06:38:16.321Z,3.83
2022-12-29T06:40:45.891Z,3.70
2022-12-29T06:43:13.443Z,3.87
2022-12-29T06:45:41.548Z,3.40
2022-12-29T06:48:09.022Z,4.43
2022-12-29T06:50:36.242Z,3.70
2022-12-29T06:53:03.410Z,3.80
2022-12-29T06:55:30.645Z,4.00
2022-12-29T06:57:58.331Z,3.70
2022-12-29T07:00:26.182Z,3.73
2022-12-29T07:02:53.596Z,3.73
2022-12-29T07:05:20.949Z,3.50
2022-12-29T07:07:48.122Z,3.80
2022-12-29T07:10:15.329Z,3.60
2022-12-29T07:12:42.718Z,4.23
2022-12-29T07:15:10.117Z,3.60
2022-12-29T07:17:37.260Z,3.53
2022-12-29T07:20:04.717Z,3.50
2022-12-29T07:22:31.901Z,3.60
2022-12-29T07:24:59.075Z,3.00
2022-12-29T07:27:26.247Z,5.37
2022-12-29T07:29:53.446Z,3.87
2022-12-29T07:32:20.709Z,3.67
2022-12-29T07:34:48.558Z,3.50
2022-12-29T07:37:18.908Z,3.80
2022-12-29T07:39:46.090Z,3.60
2022-12-29T07:42:13.280Z,3.70
2022-12-29T07:44:40.589Z,3.70
2022-12-29T07:47:07.833Z,3.97
2022-12-29T07:49:35.148Z,3.87
2022-12-29T07:52:02.325Z,3.40
2022-12-29T07:54:29.507Z,3.80
2022-12-29T07:56:56.738Z,3.60
2022-12-29T07:59:24.022Z,4.00
2022-12-29T08:01:51.483Z,3.93
2022-12-29T08:04:18.968Z,3.87
2022-12-29T08:06:46.575Z,3.60
2022-12-29T08:09:19.779Z,4.10
2022-12-29T08:11:49.415Z,3.50
2022-12-29T08:14:16.688Z,3.93
2022-12-29T08:16:43.846Z,3.73
2022-12-29T08:19:12.809Z,11.83
2022-12-29T08:21:40.078Z,3.83
2022-12-29T08:24:07.766Z,3.80
2022-12-29T08:26:35.026Z,5.73
2022-12-29T08:29:02.206Z,3.50
2022-12-29T08:31:29.454Z,3.57
2022-12-29T08:33:56.769Z,3.70
2022-12-29T08:36:24.045Z,3.70
2022-12-29T08:38:51.209Z,3.60
2022-12-29T08:41:18.428Z,3.50
2022-12-29T08:43:49.174Z,3.67
2022-12-29T08:46:16.610Z,3.77
2022-12-29T08:48:44.171Z,3.97
2022-12-29T08:51:11.344Z,3.60
2022-12-29T08:53:38.520Z,3.60
2022-12-29T08:56:05.951Z,4.60
2022-12-29T08:58:33.519Z,3.50
2022-12-29T09:01:00.797Z,3.30
2022-12-29T09:06:17.208Z,3.83
2022-12-29T09:08:44.584Z,5.43
2022-12-29T09:11:16.361Z,3.30
2022-12-29T09:13:43.564Z,4.50
2022-12-29T09:16:11.003Z,3.20
2022-12-29T09:18:38.310Z,3.50
2022-12-29T09:21:06.454Z,3.20
2022-12-29T09:23:34.957Z,3.30
2022-12-29T09:26:02.180Z,3.53
2022-12-29T09:28:30.083Z,3.10
2022-12-29T09:30:57.768Z,3.10
2022-12-29T09:33:25.349Z,3.20
2022-12-29T09:35:54.457Z,3.10
2022-12-29T09:38:22.178Z,4.80
2022-12-29T09:41:20.998Z,3.67
2022-12-29T09:44:17.357Z,3.20
2022-12-29T09:46:54.275Z,3.50
2022-12-29T09:49:21.458Z,6.00
2022-12-29T09:51:53.670Z,5.53
2022-12-29T09:55:00.531Z,3.30
2022-12-29T09:57:30.231Z,3.00
2022-12-29T10:00:05.229Z,3.07
2022-12-29T10:02:41.403Z,4.13
2022-12-29T10:05:41.284Z,4.30
2022-12-29T10:08:29.825Z,3.20
2022-12-29T10:11:17.892Z,2.90
2022-12-29T10:13:55.831Z,2.80
2022-12-29T10:16:37.428Z,2.80
2022-12-29T10:19:35.216Z,3.07
2022-12-29T10:22:35.896Z,3.83
2022-12-29T10:25:12.049Z,2.90
2022-12-29T10:27:39.367Z,2.83
2022-12-29T10:30:06.885Z,2.90
2022-12-29T10:32:37.662Z,2.90
2022-12-29T10:35:26.519Z,3.53
2022-12-29T10:38:14.231Z,2.80
2022-12-29T10:41:06.904Z,2.40
2022-12-29T10:43:47.757Z,2.70
2022-12-29T10:46:36.410Z,2.77
2022-12-29T10:49:03.855Z,4.50
2022-12-29T10:51:35.467Z,3.80
2022-12-29T10:54:14.571Z,2.90
2022-12-29T10:56:45.995Z,2.60
2022-12-29T10:59:26.214Z,2.57
2022-12-29T11:02:08.170Z,2.50
2022-12-29T11:05:08.522Z,2.38
2022-12-29T11:07:35.715Z,2.20
2022-12-29T11:10:35.178Z,2.30
2022-12-29T11:13:05.619Z,2.50
2022-12-29T11:15:49.387Z,2.40
2022-12-29T11:18:27.751Z,2.53
2022-12-29T11:21:00.314Z,3.60
2022-12-29T11:23:41.896Z,4.10
2022-12-29T11:26:11.804Z,2.50
2022-12-29T11:28:43.598Z,2.17
2022-12-29T11:31:11.011Z,2.13
2022-12-29T11:33:40.518Z,3.00
2022-12-29T11:36:14.514Z,2.10
2022-12-29T11:38:51.093Z,2.13
2022-12-29T11:41:26.953Z,2.03
2022-12-29T11:43:56.899Z,2.10
2022-12-29T11:46:33.622Z,2.13
2022-12-29T11:49:01.772Z,2.23
2022-12-29T11:51:43.977Z,2.10
2022-12-29T11:54:22.696Z,2.20
2022-12-29T11:56:50.924Z,2.20
2022-12-29T11:59:35.156Z,2.13
2022-12-29T12:02:12.237Z,2.00
2022-12-29T12:04:39.782Z,1.90
2022-12-29T12:07:25.644Z,1.80
2022-12-29T12:10:06.587Z,2.00
2022-12-29T12:12:42.836Z,2.03
2022-12-29T12:15:27.462Z,2.00
2022-12-29T12:18:10.493Z,2.10
2022-12-29T12:21:09.749Z,1.90
2022-12-29T12:23:39.476Z,2.03
2022-12-29T12:26:21.149Z,2.00
2022-12-29T12:29:00.813Z,2.10
2022-12-29T12:32:01.432Z,1.70
2022-12-29T12:34:38.657Z,2.33
2022-12-29T12:37:05.826Z,1.90
2022-12-29T12:39:32.970Z,1.90
2022-12-29T12:42:00.160Z,2.17
2022-12-29T12:45:14.773Z,2.20
2022-12-29T12:47:50.354Z,2.30
2022-12-29T12:50:33.085Z,2.13
2022-12-29T12:53:18.860Z,1.90
2022-12-29T12:56:08.314Z,1.90
2022-12-29T12:58:47.126Z,2.00
2022-12-29T13:01:23.019Z,2.00
2022-12-29T13:04:20.588Z,1.70
2022-12-29T13:07:32.518Z,1.97
2022-12-29T13:10:45.921Z,2.20
2022-12-29T13:13:59.483Z,1.90
2022-12-29T13:16:37.853Z,1.90
2022-12-29T13:19:29.602Z,1.87
2022-12-29T13:22:07.039Z,2.00
2022-12-29T13:25:02.986Z,2.07
2022-12-29T13:28:15.265Z,2.17
2022-12-29T13:30:47.847Z,2.00
2022-12-29T13:33:20.971Z,2.00
2022-12-29T13:36:06.262Z,1.93
2022-12-29T13:38:41.016Z,1.87
2022-12-29T13:41:19.613Z,1.80
2022-12-29T13:43:48.908Z,1.80
2022-12-29T13:46:23.229Z,2.00
2022-12-29T13:49:00.915Z,1.90
2022-12-29T13:51:28.602Z,2.00
2022-12-29T13:54:20.524Z,2.13
2022-12-29T13:56:57.346Z,2.10
2022-12-29T13:59:24.472Z,2.53
2022-12-29T14:02:00.012Z,2.00
2022-12-29T14:04:29.488Z,2.00
2022-12-29T14:07:13.695Z,1.90
2022-12-29T14:09:52.679Z,2.00
2022-12-29T14:12:22.274Z,2.10
2022-12-29T14:14:50.315Z,2.00
2022-12-29T14:17:21.777Z,1.90
2022-12-29T14:19:54.076Z,1.90
2022-12-29T14:22:30.834Z,2.00
2022-12-29T14:25:00.653Z,2.03
2022-12-29T14:27:30.211Z,2.20
2022-12-29T14:29:57.035Z,1.90
2022-12-29T14:32:26.734Z,1.90
2022-12-29T14:34:58.028Z,2.00
2022-12-29T14:37:32.351Z,2.17
2022-12-29T14:40:20.847Z,2.17
2022-12-29T14:42:49.130Z,1.90
2022-12-29T14:45:16.387Z,2.10
2022-12-29T14:47:54.638Z,1.90
2022-12-29T14:50:38.069Z,1.90
2022-12-29T14:53:07.342Z,2.33
2022-12-29T14:55:53.028Z,2.40
2022-12-29T14:58:22.070Z,1.90
2022-12-29T15:00:49.726Z,1.90
2022-12-29T15:03:30.729Z,2.00
2022-12-29T15:06:09.974Z,4.80
2022-12-29T15:08:58.181Z,2.10
2022-12-29T15:11:30.112Z,2.87
2022-12-29T15:13:57.268Z,2.20
2022-12-29T15:16:34.972Z,2.63
2022-12-29T15:19:02.184Z,2.07
2022-12-29T15:21:35.117Z,2.03
2022-12-29T15:24:02.530Z,2.00
2022-12-29T15:26:40.928Z,2.00
2022-12-29T15:29:38.656Z,1.80
2022-12-29T15:32:41.307Z,2.00
2022-12-29T15:35:23.533Z,1.90
2022-12-29T15:37:50.741Z,2.10
2022-12-29T15:40:26.809Z,2.23
2022-12-29T15:43:15.157Z,2.10
2022-12-29T15:45:42.417Z,1.90
2022-12-29T15:48:21.067Z,2.17
2022-12-29T15:50:48.699Z,2.10
2022-12-29T15:53:29.468Z,2.70
2022-12-29T15:56:09.636Z,1.90
2022-12-29T15:58:45.802Z,2.10
2022-12-29T16:01:31.204Z,2.10
2022-12-29T16:04:00.759Z,2.00
2022-12-29T16:06:30.100Z,3.83
2022-12-29T16:09:18.308Z,2.10
2022-12-29T16:11:54.670Z,2.10
2022-12-29T16:14:30.223Z,2.10
2022-12-29T16:17:00.403Z,2.00
2022-12-29T16:19:27.586Z,2.40
2022-12-29T16:21:54.700Z,2.13
2022-12-29T16:24:26.565Z,2.10
2022-12-29T16:27:02.603Z,2.00
2022-12-29T16:29:31.237Z,2.00
2022-12-29T16:32:03.991Z,2.00
2022-12-29T16:34:31.303Z,1.90
2022-12-29T16:37:00.718Z,2.27
2022-12-29T16:39:35.118Z,2.13
2022-12-29T16:42:02.796Z,2.10
2022-12-29T16:44:32.410Z,2.30
2022-12-29T16:47:20.570Z,2.20
2022-12-29T16:49:53.420Z,2.67
2022-12-29T16:52:26.562Z,2.00
2022-12-29T16:54:57.145Z,2.10
2022-12-29T16:57:28.651Z,2.57
2022-12-29T17:00:00.329Z,2.20
2022-12-29T17:02:30.368Z,2.00
2022-12-29T17:04:57.937Z,2.10
2022-12-29T17:07:27.086Z,2.73
2022-12-29T17:09:55.072Z,2.00
2022-12-29T17:12:27.101Z,2.43
2022-12-29T17:15:00.309Z,2.00
2022-12-29T17:17:38.832Z,1.97
2022-12-29T17:20:14.812Z,2.17
2022-12-29T17:22:41.978Z,3.07
2022-12-29T17:25:20.525Z,1.90
2022-12-29T17:27:56.231Z,2.27
2022-12-29T17:30:31.253Z,2.70
2022-12-29T17:33:06.002Z,2.37
2022-12-29T17:35:33.209Z,2.40
2022-12-29T17:38:00.848Z,2.67
2022-12-29T17:40:30.817Z,2.67
2022-12-29T17:42:59.208Z,2.20
2022-12-29T17:45:30.870Z,2.77
2022-12-29T17:48:01.525Z,3.43
2022-12-29T17:50:30.193Z,2.57
2022-12-29T17:53:11.348Z,4.33
2022-12-29T17:55:38.935Z,2.20
2022-12-29T17:58:22.292Z,2.30
2022-12-29T18:00:52.390Z,2.30
2022-12-29T18:03:23.899Z,2.63
2022-12-29T18:05:51.269Z,2.37
2022-12-29T18:08:18.470Z,2.23
2022-12-29T18:10:45.806Z,4.47
2022-12-29T18:13:27.198Z,2.10
2022-12-29T18:15:56.790Z,2.77
2022-12-29T18:18:25.850Z,2.07
2022-12-29T18:20:58.933Z,2.37
2022-12-29T18:23:32.223Z,2.83
2022-12-29T18:26:04.956Z,2.40
2022-12-29T18:28:32.146Z,2.60
2022-12-29T18:31:01.387Z,2.30
2022-12-29T18:33:28.973Z,2.40
2022-12-29T18:36:04.364Z,3.20
2022-12-29T18:38:31.911Z,3.07
2022-12-29T18:40:59.354Z,3.27
2022-12-29T18:43:26.613Z,2.27
2022-12-29T18:45:53.959Z,2.17
2022-12-29T18:48:21.482Z,2.93
2022-12-29T18:50:51.111Z,2.30
2022-12-29T18:53:20.564Z,2.80
2022-12-29T18:55:47.783Z,2.10
2022-12-29T18:58:15.104Z,2.47
2022-12-29T19:00:42.471Z,2.50
2022-12-29T19:03:13.603Z,2.30
2022-12-29T19:05:43.133Z,2.50
2022-12-29T19:08:11.515Z,3.33
2022-12-29T19:10:39.076Z,2.10
2022-12-29T19:13:06.352Z,2.63
2022-12-29T19:15:35.772Z,2.70
2022-12-29T19:20:54.050Z,2.33
2022-12-29T19:23:24.551Z,2.20
2022-12-29T19:25:53.495Z,2.47
2022-12-29T19:28:23.514Z,2.47
2022-12-29T19:30:52.708Z,2.77
2022-12-29T19:33:23.861Z,2.37
2022-12-29T19:35:52.103Z,2.20
2022-12-29T19:38:19.889Z,2.23
2022-12-29T19:40:50.581Z,2.20
2022-12-29T19:43:18.660Z,2.00
2022-12-29T19:45:46.155Z,2.73
2022-12-29T19:48:15.538Z,2.50
2022-12-29T19:50:43.550Z,2.10
2022-12-29T19:53:11.325Z,2.00
2022-12-29T19:55:38.621Z,2.23
2022-12-29T19:58:05.869Z,2.57
2022-12-29T20:00:32.784Z,2.20
2022-12-29T20:02:59.759Z,2.00
2022-12-29T20:05:26.638Z,2.70
2022-12-29T20:07:53.526Z,2.30
2022-12-29T20:10:20.289Z,2.33
2022-12-29T20:12:47.524Z,2.23
2022-12-29T20:15:15.228Z,2.90
2022-12-29T20:20:29.481Z,2.50
2022-12-29T20:22:57.846Z,2.60
2022-12-29T20:28:12.047Z,3.07
2022-12-29T20:30:38.892Z,2.63
2022-12-29T20:33:08.313Z,2.60
2022-12-29T20:35:36.307Z,3.17
2022-12-29T20:38:03.680Z,2.50
2022-12-29T20:40:30.854Z,2.20
2022-12-29T20:42:58.112Z,2.93
2022-12-29T20:45:25.449Z,2.60
2022-12-29T20:47:52.843Z,2.77
2022-12-29T20:50:20.072Z,2.40
2022-12-29T20:52:47.305Z,2.20
2022-12-29T20:55:14.754Z,3.53
2022-12-29T20:58:22.005Z,2.50
2022-12-29T21:00:30.739Z,2.80
2022-12-29T21:02:59.020Z,2.67
2022-12-29T21:05:27.150Z,2.40
2022-12-29T21:07:54.666Z,2.30
2022-12-29T21:10:22.456Z,2.20
2022-12-29T21:12:49.824Z,2.23
2022-12-29T21:15:16.696Z,3.00
2022-12-29T21:17:44.292Z,2.23
2022-12-29T21:20:20.074Z,2.50
2022-12-29T21:22:50.366Z,2.47
2022-12-29T21:25:17.678Z,3.23
2022-12-29T21:27:44.887Z,2.60
2022-12-29T21:30:12.337Z,2.40
2022-12-29T21:32:39.848Z,2.20
2022-12-29T21:35:08.398Z,2.17
2022-12-29T21:37:36.154Z,2.80
2022-12-29T21:40:04.606Z,2.50
2022-12-29T21:42:31.820Z,2.30
2022-12-29T21:45:20.736Z,2.30
2022-12-29T21:48:07.615Z,2.47
2022-12-29T21:50:58.379Z,3.47
2022-12-29T21:53:43.885Z,2.50
2022-12-29T21:56:16.780Z,2.30
2022-12-29T21:59:04.341Z,2.40
2022-12-29T22:01:51.838Z,2.30
2022-12-29T22:04:39.633Z,2.33
2022-12-29T22:07:27.034Z,2.97
2022-12-29T22:10:12.976Z,2.57
2022-12-29T22:12:59.291Z,2.57
2022-12-29T22:15:27.923Z,2.50
2022-12-29T22:17:55.438Z,2.53
2022-12-29T22:20:26.477Z,3.23
2022-12-29T22:22:53.828Z,2.30
2022-12-29T22:25:21.393Z,3.23
2022-12-29T22:27:54.268Z,2.30
2022-12-29T22:30:26.575Z,2.30
2022-12-29T22:32:53.494Z,2.50
2022-12-29T22:35:20.674Z,3.30
2022-12-29T22:37:47.478Z,2.30
2022-12-29T22:40:14.267Z,2.30
2022-12-29T22:42:41.102Z,3.83
2022-12-29T22:45:08.619Z,2.23
2022-12-29T22:47:36.060Z,2.63
2022-12-29T22:50:03.213Z,2.60
2022-12-29T22:52:30.586Z,2.40
2022-12-29T22:55:03.111Z,2.40
2022-12-29T22:57:33.504Z,2.90
2022-12-29T23:00:00.703Z,2.60
2022-12-29T23:02:28.390Z,2.40
2022-12-29T23:05:04.737Z,2.40
2022-12-29T23:07:35.368Z,2.30
2022-12-29T23:10:03.287Z,3.03
2022-12-29T23:12:31.584Z,3.07
2022-12-29T23:14:58.759Z,2.40
2022-12-29T23:17:25.986Z,7.30
2022-12-29T23:19:53.226Z,2.50
2022-12-29T23:22:20.902Z,2.53
2022-12-29T23:24:48.049Z,2.63
2022-12-29T23:27:15.281Z,2.40
2022-12-29T23:29:42.459Z,2.40
2022-12-29T23:32:09.849Z,3.23
2022-12-29T23:34:37.002Z,3.60
2022-12-29T23:37:04.211Z,2.30
2022-12-29T23:39:31.437Z,2.40
2022-12-29T23:41:59.003Z,2.40
2022-12-29T23:44:26.222Z,2.50
2022-12-29T23:46:53.556Z,2.60
2022-12-29T23:49:20.764Z,2.40
2022-12-29T23:51:47.941Z,2.50
2022-12-29T23:54:15.102Z,2.50
2022-12-29T23:56:42.293Z,3.30
2022-12-29T23:59:09.448Z,2.50
